Aeroporto :
LOGIN :

Iscrizione | Disclaimer

   EN    FR    IT 

 










Sommario :    VFR   VFR Marginale   IFR   IFR Intensivo   IFR Molto Intensivo
Visibilità : 
Base nubi : 
>= 8 km
>= 3000ft
5 / 8 km
1000 / 3000 ft
1500m / 5 km
500 / 1000 ft
800 / 1500m
200 / 500 ft
< 800m
< 200 ft
Simboli :   Temporali  Nebbia  Neve Forte  Precipitazioni Forti  Vento > 20 kt
SIGMETs :   Varie  Temporali  Ghiacco  Turbolenza  Onda orograficha  Ceneri Vulcaniche






- Altitudine del aeroporto : 1178 ft
- Codice IATA : EVG


ESND - Sveg

ULTIMO METAR :
  • 111950Z AUTO 09005KT 7000 -SN SCT003/// OVC008/// M05/M05 Q1005

METARs OBSOLETI :
  • 111920Z AUTO 09005KT 9999 -SN FEW003/// OVC009/// M05/M06 Q1005
  • 111850Z 10004KT 7000 -SN SCT002 OVC010 M05/M06 Q1005
  • 111820Z 10005KT 8000 -SN SCT002 OVC011 M05/M06 Q1005
  • 111750Z AUTO 10005KT 2600 -SN BKN002/// BKN006/// OVC008/// M06/M06 Q1006 RESN
  • 111720Z AUTO 10005KT 060V130 9999 OVC010/// M06/M07 Q1006

TAF N/A



MetMap, La meteo Aeronautica in un colpo d'occhio ! - Copyright ORBIFLY Dicembre 2007 - Disclaimer

ORBIFLY MET'MAP TEAM :

Programmazione e sviluppo : Alexandra Zaïnal
Concezione e sviluppo : Baudouin d'Aumeries
Co-Programmazione e sviluppo : Marc-Olivier Méhu
Supporto tecnico e logistico : Manuel Goepfert
Aiuto per la traduzione : Arnaldo La Scala

Contatto : metmap@orbifly.com




FONTI E CREDITI :

   NOAA